createdAt,value
2019-04-20T00:00:39.930Z,10.30
2019-04-20T00:03:07.672Z,10.30
2019-04-20T00:05:37.305Z,10.30
2019-04-20T00:08:15.015Z,10.20
2019-04-20T00:10:47.330Z,10.20
2019-04-20T00:13:21.656Z,10.20
2019-04-20T00:15:40.913Z,10.20
2019-04-20T00:18:13.558Z,10.10
2019-04-20T00:20:50.403Z,10.10
2019-04-20T00:23:22.650Z,10.10
2019-04-20T00:26:16.170Z,10.10
2019-04-20T00:28:58.889Z,10.00
2019-04-20T00:31:26.741Z,10.00
2019-04-20T00:33:53.717Z,9.90
2019-04-20T00:36:12.196Z,9.90
2019-04-20T00:38:50.062Z,9.80
2019-04-20T00:41:17.091Z,9.80
2019-04-20T00:43:45.670Z,9.80
2019-04-20T00:46:27.825Z,9.80
2019-04-20T00:48:55.836Z,9.80
2019-04-20T00:51:35.320Z,9.70
2019-04-20T00:53:54.857Z,9.70
2019-04-20T00:56:22.751Z,9.60
2019-04-20T00:59:12.204Z,9.60
2019-04-20T01:01:50.224Z,9.50
2019-04-20T01:04:39.018Z,9.50
2019-04-20T01:06:54.001Z,9.50
2019-04-20T01:09:14.391Z,9.40
2019-04-20T01:11:46.753Z,9.40
2019-04-20T01:14:17.353Z,9.30
2019-04-20T01:16:52.926Z,9.30
2019-04-20T01:19:19.327Z,9.30
2019-04-20T01:21:58.153Z,9.20
2019-04-20T01:24:28.030Z,9.20
2019-04-20T01:26:55.969Z,9.20
2019-04-20T01:29:34.551Z,9.10
2019-04-20T01:32:07.756Z,9.10
2019-04-20T01:34:39.316Z,9.10
2019-04-20T01:37:14.798Z,9.10
2019-04-20T01:39:35.499Z,9.00
2019-04-20T01:42:00.325Z,9.00
2019-04-20T01:44:33.430Z,9.00
2019-04-20T01:47:04.510Z,9.00
2019-04-20T01:49:34.962Z,9.00
2019-04-20T01:52:12.966Z,8.90
2019-04-20T01:55:02.580Z,8.90
2019-04-20T01:57:32.994Z,8.90
2019-04-20T02:00:09.235Z,8.90
2019-04-20T02:02:56.688Z,8.80
2019-04-20T02:05:29.096Z,8.80
2019-04-20T02:07:55.420Z,8.80
2019-04-20T02:10:31.934Z,8.80
2019-04-20T02:12:59.805Z,8.80
2019-04-20T02:15:37.535Z,8.70
2019-04-20T02:18:12.424Z,8.70
2019-04-20T02:20:49.108Z,8.70
2019-04-20T02:23:16.337Z,8.70
2019-04-20T02:25:31.577Z,8.70
2019-04-20T02:28:17.913Z,8.60
2019-04-20T02:31:15.744Z,8.60
2019-04-20T02:33:42.817Z,8.50
2019-04-20T02:41:47.766Z,8.40
2019-04-20T02:44:16.005Z,8.30
2019-04-20T02:47:08.421Z,8.30
2019-04-20T02:51:46.629Z,8.20
2019-04-20T02:54:18.760Z,8.10
2019-04-20T02:56:58.871Z,8.00
2019-04-20T02:59:47.306Z,8.00
2019-04-20T03:01:42.033Z,8.00
2019-04-20T03:03:56.750Z,7.90
2019-04-20T03:06:32.896Z,7.90
2019-04-20T03:09:15.266Z,7.80
2019-04-20T03:11:56.733Z,7.80
2019-04-20T03:14:13.930Z,7.80
2019-04-20T03:16:43.684Z,7.70
2019-04-20T03:19:17.357Z,7.70
2019-04-20T03:22:00.434Z,7.70
2019-04-20T03:26:55.778Z,7.60
2019-04-20T03:29:24.251Z,7.50
2019-04-20T03:37:15.612Z,7.50
2019-04-20T03:39:37.598Z,7.40
2019-04-20T03:41:52.464Z,7.40
2019-04-20T03:44:26.456Z,7.30
2019-04-20T03:46:57.554Z,7.30
2019-04-20T03:49:48.241Z,7.30
2019-04-20T03:52:31.323Z,7.20
2019-04-20T03:55:15.114Z,7.20
2019-04-20T03:57:51.244Z,7.20
2019-04-20T04:00:21.899Z,7.20
2019-04-20T04:03:08.327Z,7.10
2019-04-20T04:05:34.072Z,7.10
2019-04-20T04:08:02.603Z,7.10
2019-04-20T04:10:30.513Z,7.10
2019-04-20T04:13:07.254Z,7.10
2019-04-20T04:15:47.861Z,7.10
2019-04-20T04:18:17.135Z,7.00
2019-04-20T04:20:51.547Z,7.00
2019-04-20T04:23:33.703Z,7.00
2019-04-20T04:26:04.480Z,7.00
2019-04-20T04:28:35.111Z,7.00
2019-04-20T04:31:07.879Z,7.00
2019-04-20T04:33:53.186Z,7.00
2019-04-20T04:36:10.406Z,7.00
2019-04-20T04:38:59.858Z,7.00
2019-04-20T04:41:18.211Z,6.90
2019-04-20T04:43:44.419Z,7.00
2019-04-20T04:45:59.544Z,7.00
2019-04-20T04:48:35.107Z,7.00
2019-04-20T04:51:08.992Z,7.10
2019-04-20T04:53:44.309Z,7.10
2019-04-20T04:56:09.447Z,7.20
2019-04-20T04:58:34.643Z,7.20
2019-04-20T05:01:08.318Z,7.20
2019-04-20T05:03:56.520Z,7.30
2019-04-20T05:06:25.326Z,7.30
2019-04-20T05:08:45.375Z,7.30
2019-04-20T05:11:11.041Z,7.30
2019-04-20T05:13:50.047Z,7.40
2019-04-20T05:16:33.694Z,7.50
2019-04-20T05:19:03.383Z,7.50
2019-04-20T05:21:39.408Z,7.50
2019-04-20T05:24:25.494Z,7.50
2019-04-20T05:27:08.763Z,7.70
2019-04-20T05:29:19.390Z,8.00
2019-04-20T05:31:51.770Z,8.50
2019-04-20T05:34:40.104Z,9.20
2019-04-20T05:37:17.761Z,9.70
2019-04-20T05:39:38.503Z,10.60
2019-04-20T05:42:12.778Z,11.80
2019-04-20T05:44:46.054Z,13.00
2019-04-20T05:47:18.477Z,13.80
2019-04-20T05:49:46.833Z,13.80
2019-04-20T05:52:31.319Z,13.60
2019-04-20T05:54:50.650Z,13.40
2019-04-20T05:57:27.015Z,13.00
2019-04-20T05:59:56.001Z,12.90
2019-04-20T06:02:26.237Z,13.00
2019-04-20T06:05:04.248Z,13.00
2019-04-20T06:10:00.575Z,13.30
2019-04-20T06:12:33.065Z,13.50
2019-04-20T06:15:12.745Z,14.40
2019-04-20T06:17:58.457Z,15.20
2019-04-20T06:23:24.487Z,16.70
2019-04-20T06:26:15.919Z,17.40
2019-04-20T06:28:27.978Z,17.90
2019-04-20T06:30:59.141Z,18.20
2019-04-20T06:36:47.454Z,19.90
2019-04-20T06:39:30.998Z,21.20
2019-04-20T06:44:22.847Z,21.60
2019-04-20T06:47:01.318Z,21.90
2019-04-20T06:51:53.282Z,20.60
2019-04-20T06:54:19.993Z,20.90
2019-04-20T06:57:08.848Z,20.90
2019-04-20T06:59:40.794Z,21.80
2019-04-20T07:02:18.344Z,22.00
2019-04-20T07:07:15.644Z,21.80
2019-04-20T07:09:55.662Z,22.00
2019-04-20T07:12:15.390Z,21.90
2019-04-20T07:14:33.066Z,23.00
2019-04-20T07:17:32.966Z,23.70
2019-04-20T07:20:15.914Z,24.00
2019-04-20T07:22:55.599Z,23.40
2019-04-20T07:25:29.330Z,21.80
2019-04-20T07:27:53.567Z,21.90
2019-04-20T07:30:30.233Z,22.40
2019-04-20T07:32:58.007Z,21.90
2019-04-20T07:35:30.536Z,21.40
2019-04-20T07:38:16.822Z,20.90
2019-04-20T07:40:30.228Z,20.10
2019-04-20T07:43:16.462Z,19.60
2019-04-20T07:45:33.052Z,19.10
2019-04-20T07:48:13.559Z,18.40
2019-04-20T07:50:31.766Z,17.80
2019-04-20T07:53:07.936Z,17.20
2019-04-20T07:55:50.788Z,16.30
2019-04-20T07:58:07.337Z,16.00
2019-04-20T08:01:00.197Z,15.80
2019-04-20T08:03:33.293Z,15.70
2019-04-20T08:05:58.266Z,15.50
2019-04-20T08:08:32.837Z,15.40
2019-04-20T08:11:07.352Z,15.00
2019-04-20T08:13:45.622Z,14.60
2019-04-20T08:16:20.702Z,14.60
2019-04-20T08:18:45.777Z,14.80
2019-04-20T08:21:21.047Z,15.00
2019-04-20T08:23:47.008Z,15.00
2019-04-20T08:26:06.590Z,15.00
2019-04-20T08:28:39.263Z,15.10
2019-04-20T08:31:19.580Z,15.30
2019-04-20T08:34:07.622Z,15.50
2019-04-20T08:36:33.540Z,15.30
2019-04-20T08:41:31.823Z,15.10
2019-04-20T08:44:09.432Z,15.10
2019-04-20T08:46:47.721Z,15.00
2019-04-20T08:49:10.130Z,15.10
2019-04-20T08:51:49.419Z,15.10
2019-04-20T08:54:11.248Z,15.20
2019-04-20T08:56:34.823Z,15.40
2019-04-20T08:58:53.310Z,15.40
2019-04-20T09:01:28.249Z,15.50
2019-04-20T09:04:05.414Z,15.50
2019-04-20T09:06:41.476Z,15.60
2019-04-20T09:09:22.484Z,15.70
2019-04-20T09:11:49.554Z,15.90
2019-04-20T09:14:20.936Z,16.00
2019-04-20T09:16:57.030Z,16.00
2019-04-20T09:19:34.392Z,16.20
2019-04-20T09:22:26.661Z,16.40
2019-04-20T09:25:07.489Z,16.30
2019-04-20T09:27:26.920Z,16.50
2019-04-20T09:30:07.769Z,16.50
2019-04-20T09:32:34.297Z,16.50
2019-04-20T09:35:06.803Z,16.50
2019-04-20T09:37:43.533Z,16.60
2019-04-20T09:40:21.157Z,16.60
2019-04-20T09:42:35.573Z,16.50
2019-04-20T09:45:13.089Z,16.60
2019-04-20T09:47:43.537Z,16.60
2019-04-20T09:50:27.848Z,16.70
2019-04-20T09:52:59.265Z,16.90
2019-04-20T09:55:24.647Z,16.90
2019-04-20T09:58:02.450Z,16.90
2019-04-20T10:00:35.721Z,17.00
2019-04-20T10:02:48.420Z,16.90
2019-04-20T10:05:18.099Z,17.10
2019-04-20T10:07:55.897Z,17.10
2019-04-20T10:10:28.812Z,17.10
2019-04-20T10:12:50.098Z,17.20
2019-04-20T10:15:23.023Z,17.40
2019-04-20T10:17:51.914Z,17.50
2019-04-20T10:20:28.219Z,17.50
2019-04-20T10:22:52.478Z,17.60
2019-04-20T10:25:22.564Z,17.80
2019-04-20T10:27:52.163Z,17.90
2019-04-20T10:30:22.981Z,17.80
2019-04-20T10:32:54.080Z,17.80
2019-04-20T10:35:23.648Z,17.80
2019-04-20T10:38:00.864Z,17.90
2019-04-20T10:40:44.823Z,17.90
2019-04-20T10:43:03.184Z,17.90
2019-04-20T10:45:33.104Z,17.90
2019-04-20T10:48:03.395Z,18.00
2019-04-20T10:50:32.987Z,18.10
2019-04-20T10:53:03.638Z,18.30
2019-04-20T10:55:33.513Z,18.70
2019-04-20T10:58:03.805Z,18.60
2019-04-20T11:00:41.934Z,18.60
2019-04-20T11:03:15.583Z,18.60
2019-04-20T11:05:46.778Z,18.80
2019-04-20T11:08:16.868Z,18.80
2019-04-20T11:10:59.283Z,18.90
2019-04-20T11:13:19.383Z,19.00
2019-04-20T11:15:50.446Z,19.10
2019-04-20T11:18:21.394Z,19.00
2019-04-20T11:20:51.365Z,18.70
2019-04-20T11:23:20.818Z,18.70
2019-04-20T11:25:50.557Z,18.80
2019-04-20T11:28:20.071Z,18.80
2019-04-20T11:30:50.132Z,18.70
2019-04-20T11:33:20.364Z,18.80
2019-04-20T11:35:51.553Z,18.70
2019-04-20T11:38:22.005Z,18.80
2019-04-20T11:41:05.115Z,18.90
2019-04-20T11:43:26.064Z,18.90
2019-04-20T11:45:56.536Z,18.90
2019-04-20T11:48:27.392Z,19.00
2019-04-20T11:50:57.898Z,19.10
2019-04-20T11:53:28.580Z,19.00
2019-04-20T11:56:00.454Z,18.90
2019-04-20T11:58:30.367Z,19.00
2019-04-20T12:01:08.527Z,19.10
2019-04-20T12:03:47.897Z,19.10
2019-04-20T12:06:08.452Z,19.20
2019-04-20T12:08:40.467Z,19.20
2019-04-20T12:11:22.800Z,19.10
2019-04-20T12:13:40.668Z,19.10
2019-04-20T12:16:10.242Z,19.20
2019-04-20T12:18:39.738Z,19.20
2019-04-20T12:21:10.537Z,19.20
2019-04-20T12:23:40.383Z,19.40
2019-04-20T12:26:10.819Z,19.60
2019-04-20T12:28:40.355Z,19.70
2019-04-20T12:31:13.518Z,19.90
2019-04-20T12:33:42.262Z,19.80
2019-04-20T12:36:12.550Z,19.50
2019-04-20T12:38:43.364Z,19.50
2019-04-20T12:41:14.484Z,19.70
2019-04-20T12:43:45.567Z,19.90
2019-04-20T12:46:22.990Z,19.70
2019-04-20T12:48:53.432Z,19.70
2019-04-20T12:51:24.367Z,19.80
2019-04-20T12:53:54.190Z,19.90
2019-04-20T12:56:24.462Z,19.80
2019-04-20T12:58:54.037Z,19.80
2019-04-20T13:01:24.482Z,19.70
2019-04-20T13:03:55.312Z,19.70
2019-04-20T13:06:26.119Z,19.80
2019-04-20T13:08:58.952Z,19.70
2019-04-20T13:11:43.747Z,19.60
2019-04-20T13:14:14.582Z,19.50
2019-04-20T13:16:44.144Z,19.60
2019-04-20T13:19:14.887Z,19.60
2019-04-20T13:21:45.138Z,19.50
2019-04-20T13:24:14.676Z,19.50
2019-04-20T13:26:44.902Z,19.70
2019-04-20T13:29:15.012Z,19.90
2019-04-20T13:31:44.589Z,20.00
2019-04-20T13:34:15.133Z,20.00
2019-04-20T13:36:46.200Z,19.80
2019-04-20T13:39:16.529Z,19.60
2019-04-20T13:41:57.604Z,19.70
2019-04-20T13:44:18.005Z,19.80
2019-04-20T13:46:49.591Z,19.90
2019-04-20T13:49:19.010Z,19.90
2019-04-20T13:51:48.762Z,20.00
2019-04-20T13:54:23.910Z,20.00
2019-04-20T13:56:51.961Z,20.10
2019-04-20T13:59:26.668Z,19.90
2019-04-20T14:01:59.137Z,19.80
2019-04-20T14:04:30.683Z,19.70
2019-04-20T14:07:01.953Z,19.70
2019-04-20T14:09:31.437Z,19.80
2019-04-20T14:12:13.846Z,19.70
2019-04-20T14:14:33.036Z,19.70
2019-04-20T14:17:03.258Z,19.70
2019-04-20T14:19:32.763Z,19.80
2019-04-20T14:22:02.305Z,19.80
2019-04-20T14:24:33.056Z,19.70
2019-04-20T14:27:03.300Z,19.90
2019-04-20T14:29:32.901Z,19.90
2019-04-20T14:32:04.230Z,20.00
2019-04-20T14:34:35.105Z,19.90
2019-04-20T14:37:04.880Z,19.90
2019-04-20T14:39:34.329Z,20.00
2019-04-20T14:42:04.561Z,20.00
2019-04-20T14:44:35.303Z,20.00
2019-04-20T14:47:05.617Z,20.00
2019-04-20T14:49:36.766Z,19.90
2019-04-20T14:52:08.055Z,20.00
2019-04-20T14:54:39.402Z,20.00
2019-04-20T14:57:09.663Z,20.00
2019-04-20T14:59:41.366Z,20.10
2019-04-20T15:02:12.809Z,20.00
2019-04-20T15:04:43.255Z,19.90
2019-04-20T15:07:13.012Z,19.80
2019-04-20T15:09:42.877Z,19.80
2019-04-20T15:12:12.961Z,19.70
2019-04-20T15:14:42.836Z,19.70
2019-04-20T15:17:15.174Z,19.70
2019-04-20T15:19:47.594Z,19.50
2019-04-20T15:22:31.657Z,19.50
2019-04-20T15:25:01.375Z,19.50
2019-04-20T15:27:30.902Z,19.60
2019-04-20T15:30:00.445Z,19.70
2019-04-20T15:32:31.375Z,19.80
2019-04-20T15:35:03.025Z,19.70
2019-04-20T15:37:33.107Z,19.50
2019-04-20T15:40:03.441Z,19.60
2019-04-20T15:42:47.858Z,19.50
2019-04-20T15:45:09.329Z,19.40
2019-04-20T15:47:40.030Z,19.50
2019-04-20T15:50:11.550Z,19.50
2019-04-20T15:52:48.271Z,19.40
2019-04-20T15:55:21.662Z,19.40
2019-04-20T15:57:44.811Z,19.40
2019-04-20T16:00:16.216Z,19.30
2019-04-20T16:02:47.549Z,19.30
2019-04-20T16:05:37.671Z,19.20
2019-04-20T16:08:10.657Z,19.10
2019-04-20T16:10:41.602Z,19.00
2019-04-20T16:13:20.184Z,18.80
2019-04-20T16:15:43.497Z,18.80
2019-04-20T16:18:14.763Z,18.60
2019-04-20T16:20:58.090Z,18.50
2019-04-20T16:23:18.887Z,18.60
2019-04-20T16:25:51.093Z,18.50
2019-04-20T16:28:21.653Z,18.40
2019-04-20T16:30:51.733Z,18.30
2019-04-20T16:33:22.353Z,18.30
2019-04-20T16:35:52.345Z,18.20
2019-04-20T16:38:22.426Z,18.20
2019-04-20T16:40:52.542Z,18.30
2019-04-20T16:43:29.379Z,18.30
2019-04-20T16:45:55.060Z,18.30
2019-04-20T16:48:26.228Z,18.30
2019-04-20T16:50:55.993Z,18.30
2019-04-20T16:53:26.771Z,18.20
2019-04-20T16:55:56.837Z,18.10
2019-04-20T16:58:28.121Z,18.00
2019-04-20T17:00:58.990Z,17.80
2019-04-20T17:03:43.277Z,17.70
2019-04-20T17:06:00.049Z,17.60
2019-04-20T17:08:29.612Z,17.50
2019-04-20T17:11:00.001Z,17.50
2019-04-20T17:13:37.965Z,17.40
2019-04-20T17:16:04.147Z,17.40
2019-04-20T17:18:34.026Z,17.40
2019-04-20T17:21:07.826Z,17.30
2019-04-20T17:23:37.339Z,17.30
2019-04-20T17:26:08.227Z,17.20
2019-04-20T17:28:46.846Z,17.20
2019-04-20T17:31:21.907Z,17.10
2019-04-20T17:34:01.487Z,17.00
2019-04-20T17:36:28.919Z,16.90
2019-04-20T17:38:59.740Z,16.90
2019-04-20T17:41:47.255Z,16.90
2019-04-20T17:44:24.784Z,16.90
2019-04-20T17:46:48.960Z,16.70
2019-04-20T17:49:25.727Z,16.70
2019-04-20T17:52:06.220Z,16.60
2019-04-20T17:54:22.854Z,16.50
2019-04-20T17:56:54.284Z,16.40
2019-04-20T17:59:24.327Z,16.30
2019-04-20T18:02:23.856Z,16.30
2019-04-20T18:05:19.786Z,16.20
2019-04-20T18:07:44.891Z,16.00
2019-04-20T18:10:17.474Z,16.00
2019-04-20T18:12:40.685Z,15.90
2019-04-20T18:15:23.119Z,15.80
2019-04-20T18:18:00.218Z,15.70
2019-04-20T18:20:32.771Z,15.60
2019-04-20T18:23:02.601Z,15.50
2019-04-20T18:26:01.518Z,15.40
2019-04-20T18:28:15.235Z,15.30
2019-04-20T18:30:57.346Z,15.10
2019-04-20T18:33:28.822Z,15.00
2019-04-20T18:35:56.278Z,14.90
2019-04-20T18:38:26.231Z,14.80
2019-04-20T18:41:03.980Z,14.70
2019-04-20T18:43:29.226Z,14.60
2019-04-20T18:46:17.166Z,14.50
2019-04-20T18:48:51.201Z,14.40
2019-04-20T18:51:01.781Z,14.30
2019-04-20T18:53:37.427Z,14.20
2019-04-20T18:56:04.300Z,14.10
2019-04-20T18:58:35.256Z,14.00
2019-04-20T19:01:05.362Z,13.90
2019-04-20T19:03:40.669Z,13.80
2019-04-20T19:06:07.714Z,13.70
2019-04-20T19:08:44.678Z,13.60
2019-04-20T19:11:14.555Z,13.50
2019-04-20T19:13:47.776Z,13.40
2019-04-20T19:16:37.624Z,13.30
2019-04-20T19:19:13.477Z,13.20
2019-04-20T19:21:33.532Z,13.20
2019-04-20T19:24:09.215Z,13.10
2019-04-20T19:26:34.435Z,13.00
2019-04-20T19:29:14.017Z,12.90
2019-04-20T19:31:56.756Z,12.80
2019-04-20T19:34:26.011Z,12.70
2019-04-20T19:36:58.018Z,12.60
2019-04-20T19:39:30.337Z,12.60
2019-04-20T19:41:54.035Z,12.50
2019-04-20T19:44:27.295Z,12.40
2019-04-20T19:47:12.421Z,12.40
2019-04-20T19:49:32.696Z,12.40
2019-04-20T19:52:24.971Z,12.30
2019-04-20T19:54:40.085Z,12.30
2019-04-20T19:57:09.389Z,12.20
2019-04-20T19:59:34.759Z,12.20
2019-04-20T20:01:57.967Z,12.20
2019-04-20T20:04:32.133Z,12.20
2019-04-20T20:07:03.609Z,12.10
2019-04-20T20:09:34.037Z,12.10
2019-04-20T20:12:03.731Z,12.00
2019-04-20T20:14:39.036Z,12.00
2019-04-20T20:17:27.321Z,11.90
2019-04-20T20:20:06.866Z,11.80
2019-04-20T20:22:21.577Z,11.80
2019-04-20T20:24:41.173Z,11.80
2019-04-20T20:27:22.890Z,11.70
2019-04-20T20:29:57.191Z,11.70
2019-04-20T20:32:31.070Z,11.60
2019-04-20T20:34:56.211Z,11.50
2019-04-20T20:37:27.145Z,11.50
2019-04-20T20:39:59.741Z,11.40
2019-04-20T20:42:35.392Z,11.40
2019-04-20T20:45:06.701Z,11.40
2019-04-20T20:48:03.966Z,11.30
2019-04-20T20:50:20.286Z,11.20
2019-04-20T20:52:46.539Z,11.20
2019-04-20T20:55:06.970Z,11.10
2019-04-20T20:57:44.823Z,11.00
2019-04-20T21:00:17.934Z,11.00
2019-04-20T21:02:44.820Z,11.00
2019-04-20T21:05:07.347Z,10.90
2019-04-20T21:07:38.537Z,10.80
2019-04-20T21:10:10.378Z,10.80
2019-04-20T21:12:47.656Z,10.70
2019-04-20T21:15:16.975Z,10.60
2019-04-20T21:18:08.556Z,10.60
2019-04-20T21:20:33.794Z,10.50
2019-04-20T21:23:03.643Z,10.50
2019-04-20T21:25:27.642Z,10.50
2019-04-20T21:27:55.010Z,10.40
2019-04-20T21:30:32.965Z,10.40
2019-04-20T21:33:00.590Z,10.40
2019-04-20T21:35:32.455Z,10.30
2019-04-20T21:38:05.719Z,10.30
2019-04-20T21:40:36.244Z,10.30
2019-04-20T21:43:05.071Z,10.30
2019-04-20T21:45:36.083Z,10.20
2019-04-20T21:48:09.795Z,10.20
2019-04-20T21:50:57.618Z,10.20
2019-04-20T21:53:14.549Z,10.20
2019-04-20T21:55:37.766Z,10.10
2019-04-20T21:58:09.007Z,10.10
2019-04-20T22:01:05.120Z,10.10
2019-04-20T22:03:24.739Z,10.10
2019-04-20T22:06:02.630Z,10.10
2019-04-20T22:08:32.750Z,10.00
2019-04-20T22:11:03.975Z,10.00
2019-04-20T22:13:38.855Z,10.00
2019-04-20T22:16:10.056Z,9.90
2019-04-20T22:18:48.174Z,9.90
2019-04-20T22:21:18.729Z,9.90
2019-04-20T22:23:57.130Z,9.80
2019-04-20T22:26:20.788Z,9.80
2019-04-20T22:28:42.417Z,9.80
2019-04-20T22:31:12.046Z,9.70
2019-04-20T22:33:44.844Z,9.70
2019-04-20T22:36:14.625Z,9.70
2019-04-20T22:39:03.421Z,9.70
2019-04-20T22:41:36.895Z,9.60
2019-04-20T22:44:13.622Z,9.50
2019-04-20T22:46:40.876Z,9.50
2019-04-20T22:49:26.577Z,9.50
2019-04-20T22:51:52.200Z,9.40
2019-04-20T22:54:28.009Z,9.40
2019-04-20T22:56:57.167Z,9.40
2019-04-20T22:59:22.622Z,9.30
2019-04-20T23:01:53.566Z,9.30
2019-04-20T23:04:21.075Z,9.30
2019-04-20T23:06:52.380Z,9.20
2019-04-20T23:09:22.624Z,9.20
2019-04-20T23:11:55.859Z,9.10
2019-04-20T23:14:24.697Z,9.00
2019-04-20T23:16:57.057Z,9.00
2019-04-20T23:19:35.726Z,8.90
2019-04-20T23:22:01.222Z,8.90
2019-04-20T23:24:29.159Z,8.90
2019-04-20T23:26:59.509Z,8.90
2019-04-20T23:29:32.710Z,8.80
2019-04-20T23:32:05.159Z,8.80
2019-04-20T23:34:34.096Z,8.70
2019-04-20T23:37:03.046Z,8.70
2019-04-20T23:39:38.524Z,8.70
2019-04-20T23:42:08.436Z,8.70
2019-04-20T23:44:44.698Z,8.60
2019-04-20T23:47:15.574Z,8.60
2019-04-20T23:50:05.953Z,8.60
2019-04-20T23:52:35.628Z,8.60
2019-04-20T23:54:55.747Z,8.50
2019-04-20T23:57:19.817Z,8.50
2019-04-20T23:59:50.285Z,8.50
